Rogers, Minnesota
Current Conditions -  °F | °C
As of 2:53 PM on Saturday 22 Nov 2014 (Local Time) from KMIC Reporting Station
Haze Haze  
Wind Chill: 29°   Ceiling: 600
Heat Index: 36°   Visibility: 4mi
Dew Point: 33°   Wind: 9mph
Humidity: 89%   Direction: 150°SSE
Pressure: 29.66"   Gusts: NA
Location:  45.19°N, 93.55°W
Report Text: KMIC 222053Z 15008KT 4SM BR OVC006 02/01 A2966 RMK AO2 SLP051 T00220006 56014
Loading
Personal Weather Stations






























Interactive Weather Map New forecast layout! Learn more

10-Day Weather Forecast

Advertisements
Track Severe Weather on mobile